Time,TemperatureF,DewpointF,PressureIn,WindDirection,WindDirectionDegrees,WindSpeedMPH,WindSpeedGustMPH,Humidity,HourlyPrecipIn,Conditions,Clouds,dailyrainin,SoftwareType,DateUTC
2013-02-13 00:00:00,26.8,6.2,29.40,West,270,0.0,0.0,41,0.00,,---,0.00,VWS V14.01,2013-02-13 05:00:00,
2013-02-13 00:05:00,26.6,6.6,29.40,West,270,0.0,0.0,42,0.00,,---,0.00,VWS V14.01,2013-02-13 05:05:00,
2013-02-13 00:10:00,26.4,6.4,29.40,West,270,0.0,0.0,42,0.00,,---,0.00,VWS V14.01,2013-02-13 05:10:00,
2013-02-13 00:15:00,26.4,6.4,29.40,West,270,0.0,0.0,42,0.00,,---,0.00,VWS V14.01,2013-02-13 05:15:00,
2013-02-13 00:20:00,26.4,6.4,29.40,West,270,0.0,0.0,42,0.00,,---,0.00,VWS V14.01,2013-02-13 05:20:00,
2013-02-13 00:25:00,26.4,6.4,29.40,West,270,0.0,0.0,42,0.00,,---,0.00,VWS V14.01,2013-02-13 05:25:00,
2013-02-13 00:30:00,26.2,6.3,29.40,West,270,0.0,0.0,42,0.00,,---,0.00,VWS V14.01,2013-02-13 05:30:00,
2013-02-13 00:35:00,26.2,6.3,29.40,West,270,0.0,0.0,42,0.00,,---,0.00,VWS V14.01,2013-02-13 05:35:00,
2013-02-13 00:40:00,26.4,6.4,29.40,West,270,0.0,0.0,42,0.00,,---,0.00,VWS V14.01,2013-02-13 05:40:00,
2013-02-13 00:45:00,26.4,6.4,29.40,West,270,0.0,0.0,42,0.00,,---,0.00,VWS V14.01,2013-02-13 05:45:00,
2013-02-13 00:50:00,26.2,6.3,29.40,West,270,0.0,0.0,42,0.00,,---,0.00,VWS V14.01,2013-02-13 05:50:00,
2013-02-13 00:55:00,26.2,6.3,29.40,West,270,0.0,0.0,42,0.00,,---,0.00,VWS V14.01,2013-02-13 05:55:00,
2013-02-13 01:00:00,26.4,6.4,29.40,West,270,0.0,0.0,42,0.00,,---,0.00,VWS V14.01,2013-02-13 06:00:00,
2013-02-13 01:05:00,26.2,6.3,29.40,West,270,0.0,0.0,42,0.00,,---,0.00,VWS V14.01,2013-02-13 06:05:00,
2013-02-13 01:10:00,26.2,6.3,29.40,West,270,0.0,0.0,42,0.00,,---,0.00,VWS V14.01,2013-02-13 06:10:00,
2013-02-13 01:15:00,26.4,6.4,29.37,West,270,0.0,0.0,42,0.00,,---,0.00,VWS V14.01,2013-02-13 06:15:00,
2013-02-13 01:20:00,26.4,6.4,29.37,West,271,0.0,0.0,42,0.00,,---,0.00,VWS V14.01,2013-02-13 06:20:00,
2013-02-13 01:25:00,26.4,6.4,29.37,West,270,0.0,0.0,42,0.00,,---,0.00,VWS V14.01,2013-02-13 06:25:00,
2013-02-13 01:30:00,26.4,6.4,29.37,West,270,0.0,0.0,42,0.00,,---,0.00,VWS V14.01,2013-02-13 06:30:00,
2013-02-13 01:35:00,26.2,6.3,29.37,West,270,0.0,0.0,42,0.00,,---,0.00,VWS V14.01,2013-02-13 06:35:00,
2013-02-13 01:40:00,26.1,6.1,29.37,West,270,0.0,0.0,42,0.00,,---,0.00,VWS V14.01,2013-02-13 06:40:00,
2013-02-13 01:45:00,26.2,6.3,29.37,West,270,0.0,0.0,42,0.00,,---,0.00,VWS V14.01,2013-02-13 06:45:00,
2013-02-13 01:50:00,26.2,6.3,29.37,West,270,0.0,0.0,42,0.00,,---,0.00,VWS V14.01,2013-02-13 06:50:00,
2013-02-13 01:55:00,26.2,6.3,29.37,West,270,0.0,0.0,42,0.00,,---,0.00,VWS V14.01,2013-02-13 06:55:00,
2013-02-13 02:00:00,26.1,6.1,29.34,West,270,0.0,0.0,42,0.00,,---,0.00,VWS V14.01,2013-02-13 07:00:00,
2013-02-13 02:05:00,26.2,6.3,29.34,West,271,0.0,0.0,42,0.00,,---,0.00,VWS V14.01,2013-02-13 07:05:00,
2013-02-13 02:10:00,26.2,6.3,29.34,South,177,0.0,0.0,42,0.00,,---,0.00,VWS V14.01,2013-02-13 07:10:00,
2013-02-13 02:15:00,26.4,6.4,29.34,SE,140,0.0,0.0,42,0.00,,---,0.00,VWS V14.01,2013-02-13 07:15:00,
2013-02-13 02:20:00,26.2,6.3,29.34,SE,140,0.0,0.0,42,0.00,,---,0.00,VWS V14.01,2013-02-13 07:20:00,
2013-02-13 02:25:00,26.2,6.3,29.34,SE,140,0.0,0.0,42,0.00,,---,0.00,VWS V14.01,2013-02-13 07:25:00,
2013-02-13 02:30:00,26.2,6.3,29.37,SE,140,0.0,0.0,42,0.00,,---,0.00,VWS V14.01,2013-02-13 07:30:00,
2013-02-13 02:35:00,26.2,6.3,29.37,SE,140,0.0,0.0,42,0.00,,---,0.00,VWS V14.01,2013-02-13 07:35:00,
2013-02-13 02:40:00,26.2,6.3,29.37,SE,140,0.0,0.0,42,0.00,,---,0.00,VWS V14.01,2013-02-13 07:40:00,
2013-02-13 02:45:00,26.2,6.3,29.34,ESE,112,0.0,0.0,42,0.00,,---,0.00,VWS V14.01,2013-02-13 07:45:00,
2013-02-13 02:50:00,26.2,6.3,29.34,ESE,105,0.0,0.0,42,0.00,,---,0.00,VWS V14.01,2013-02-13 07:50:00,
2013-02-13 02:55:00,26.2,6.3,29.34,ESE,105,0.0,0.0,42,0.00,,---,0.00,VWS V14.01,2013-02-13 07:55:00,
2013-02-13 03:00:00,26.2,6.3,29.34,ESE,105,0.0,0.0,42,0.00,,---,0.00,VWS V14.01,2013-02-13 08:00:00,
2013-02-13 03:05:00,26.2,6.3,29.34,ESE,105,0.0,0.0,42,0.00,,---,0.00,VWS V14.01,2013-02-13 08:05:00,
2013-02-13 03:10:00,26.2,6.3,29.34,ESE,105,0.0,0.0,42,0.00,,---,0.00,VWS V14.01,2013-02-13 08:10:00,
2013-02-13 03:15:00,26.2,6.3,29.34,ESE,104,0.0,0.0,42,0.00,,---,0.00,VWS V14.01,2013-02-13 08:15:00,
2013-02-13 03:20:00,26.2,6.3,29.34,ESE,104,0.0,0.0,42,0.00,,---,0.00,VWS V14.01,2013-02-13 08:20:00,
2013-02-13 03:25:00,26.2,6.3,29.34,ESE,104,0.0,0.0,42,0.00,,---,0.00,VWS V14.01,2013-02-13 08:25:00,
2013-02-13 03:30:00,26.2,6.3,29.34,ESE,104,0.0,0.0,42,0.00,,---,0.00,VWS V14.01,2013-02-13 08:30:00,
2013-02-13 03:35:00,26.4,6.4,29.34,East,81,0.0,0.0,42,0.00,,---,0.00,VWS V14.01,2013-02-13 08:35:00,
2013-02-13 03:40:00,26.4,6.4,29.34,East,81,0.0,0.0,42,0.00,,---,0.00,VWS V14.01,2013-02-13 08:40:00,
2013-02-13 03:45:00,26.2,6.3,29.31,East,81,0.0,0.0,42,0.00,,---,0.00,VWS V14.01,2013-02-13 08:45:00,
2013-02-13 03:50:00,26.4,6.4,29.31,ENE,60,0.0,0.0,42,0.00,,---,0.00,VWS V14.01,2013-02-13 08:50:00,
2013-02-13 03:55:00,26.2,6.3,29.31,ENE,60,0.0,0.0,42,0.00,,---,0.00,VWS V14.01,2013-02-13 08:55:00,
2013-02-13 04:00:00,26.2,6.3,29.34,ENE,60,0.0,0.0,42,0.00,,---,0.00,VWS V14.01,2013-02-13 09:00:00,
2013-02-13 04:05:00,26.1,6.1,29.34,ENE,60,0.0,0.0,42,0.00,,---,0.00,VWS V14.01,2013-02-13 09:05:00,
2013-02-13 04:10:00,26.1,6.1,29.34,ENE,60,0.0,0.0,42,0.00,,---,0.00,VWS V14.01,2013-02-13 09:10:00,
2013-02-13 04:15:00,26.2,6.3,29.31,ENE,60,0.0,0.0,42,0.00,,---,0.00,VWS V14.01,2013-02-13 09:15:00,
2013-02-13 04:20:00,26.2,6.3,29.31,ENE,60,0.0,0.0,42,0.00,,---,0.00,VWS V14.01,2013-02-13 09:20:00,
2013-02-13 04:25:00,26.6,6.6,29.31,NE,42,0.0,0.0,42,0.00,,---,0.00,VWS V14.01,2013-02-13 09:25:00,
2013-02-13 04:30:00,27.0,6.4,29.34,NE,42,0.0,0.0,41,0.00,,---,0.00,VWS V14.01,2013-02-13 09:30:00,
2013-02-13 04:35:00,27.0,6.4,29.34,NE,42,0.0,0.0,41,0.00,,---,0.00,VWS V14.01,2013-02-13 09:35:00,
2013-02-13 04:40:00,27.0,6.4,29.34,NE,42,0.0,0.0,41,0.00,,---,0.00,VWS V14.01,2013-02-13 09:40:00,
2013-02-13 04:45:00,27.0,6.4,29.34,NE,42,0.0,0.0,41,0.00,,---,0.00,VWS V14.01,2013-02-13 09:45:00,
2013-02-13 07:45:00,30.6,9.1,29.28,NE,42,0.0,0.0,40,0.00,,---,0.00,VWS V14.01,2013-02-13 12:45:00,
2013-02-13 07:50:00,31.1,9.6,29.28,NE,42,0.0,0.0,40,0.00,,---,0.00,VWS V14.01,2013-02-13 12:50:00,
2013-02-13 07:55:00,31.5,9.9,29.28,NE,42,0.0,0.0,40,0.00,,---,0.00,VWS V14.01,2013-02-13 12:55:00,
2013-02-13 08:00:00,31.8,10.3,29.28,NE,42,0.0,0.0,40,0.00,,---,0.00,VWS V14.01,2013-02-13 13:00:00,
2013-02-13 08:05:00,31.8,10.3,29.28,NE,42,0.0,0.0,40,0.00,,---,0.00,VWS V14.01,2013-02-13 13:05:00,
2013-02-13 08:10:00,32.0,10.4,29.28,East,81,0.0,0.0,40,0.00,,---,0.00,VWS V14.01,2013-02-13 13:10:00,
2013-02-13 08:15:00,32.4,10.8,29.25,East,81,0.0,0.0,40,0.00,,---,0.00,VWS V14.01,2013-02-13 13:15:00,
2013-02-13 08:20:00,32.5,10.9,29.25,East,81,0.0,0.0,40,0.00,,---,0.00,VWS V14.01,2013-02-13 13:20:00,
2013-02-13 08:25:00,32.7,11.1,29.25,East,81,0.0,0.0,40,0.00,,---,0.00,VWS V14.01,2013-02-13 13:25:00,
2013-02-13 08:30:00,33.1,11.4,29.25,East,81,0.0,0.0,40,0.00,,---,0.00,VWS V14.01,2013-02-13 13:30:00,
2013-02-13 08:35:00,33.3,11.6,29.25,East,81,0.0,0.0,40,0.00,,---,0.00,VWS V14.01,2013-02-13 13:35:00,
2013-02-13 08:40:00,33.6,11.9,29.25,East,81,0.0,0.0,40,0.00,,---,0.00,VWS V14.01,2013-02-13 13:40:00,
2013-02-13 08:45:00,34.0,12.2,29.25,East,81,0.0,0.0,40,0.00,,---,0.00,VWS V14.01,2013-02-13 13:45:00,
2013-02-13 08:50:00,34.3,12.5,29.25,East,81,0.0,0.0,40,0.00,,---,0.00,VWS V14.01,2013-02-13 13:50:00,
2013-02-13 08:55:00,34.9,13.0,29.25,East,81,0.0,0.0,40,0.00,,---,0.00,VWS V14.01,2013-02-13 13:55:00,
2013-02-13 09:00:00,35.1,13.2,29.25,East,81,0.0,0.0,40,0.00,,---,0.00,VWS V14.01,2013-02-13 14:00:00,
2013-02-13 09:05:00,35.4,13.5,29.25,East,81,0.0,0.0,40,0.00,,---,0.00,VWS V14.01,2013-02-13 14:05:00,
2013-02-13 09:10:00,35.6,13.7,29.25,East,81,0.0,0.0,40,0.00,,---,0.00,VWS V14.01,2013-02-13 14:10:00,
2013-02-13 09:15:00,35.8,13.8,29.22,East,81,0.0,0.0,40,0.00,,---,0.00,VWS V14.01,2013-02-13 14:15:00,
2013-02-13 09:20:00,36.5,14.5,29.22,East,81,0.0,0.0,40,0.00,,---,0.00,VWS V14.01,2013-02-13 14:20:00,
2013-02-13 09:25:00,37.0,15.0,29.22,East,81,0.0,0.0,40,0.00,,---,0.00,VWS V14.01,2013-02-13 14:25:00,
2013-02-13 09:30:00,37.4,14.7,29.25,NE,54,0.0,0.0,39,0.00,,---,0.00,VWS V14.01,2013-02-13 14:30:00,
2013-02-13 09:35:00,37.8,15.0,29.25,SE,133,0.0,0.0,39,0.00,,---,0.00,VWS V14.01,2013-02-13 14:35:00,
2013-02-13 09:40:00,37.9,15.2,29.25,ESE,106,0.0,2.2,39,0.00,,---,0.00,VWS V14.01,2013-02-13 14:40:00,
2013-02-13 09:45:00,38.1,15.4,29.25,ESE,106,0.0,0.0,39,0.00,,---,0.00,VWS V14.01,2013-02-13 14:45:00,
2013-02-13 09:50:00,38.5,15.7,29.25,ESE,106,0.0,0.0,39,0.00,,---,0.00,VWS V14.01,2013-02-13 14:50:00,
2013-02-13 09:55:00,38.8,16.0,29.25,ENE,67,0.0,0.0,39,0.00,,---,0.00,VWS V14.01,2013-02-13 14:55:00,
2013-02-13 10:00:00,39.4,16.5,29.25,ENE,67,0.0,0.0,39,0.00,,---,0.00,VWS V14.01,2013-02-13 15:00:00,
2013-02-13 10:05:00,39.4,16.5,29.25,ENE,67,0.0,0.0,39,0.00,,---,0.00,VWS V14.01,2013-02-13 15:05:00,
2013-02-13 10:10:00,39.7,16.8,29.25,ENE,72,0.0,0.0,39,0.00,,---,0.00,VWS V14.01,2013-02-13 15:10:00,
2013-02-13 10:15:00,40.1,17.1,29.22,ENE,72,0.0,0.0,39,0.00,,---,0.00,VWS V14.01,2013-02-13 15:15:00,
2013-02-13 10:20:00,39.9,17.0,29.22,ENE,72,0.0,0.0,39,0.00,,---,0.00,VWS V14.01,2013-02-13 15:20:00,
2013-02-13 10:25:00,40.1,17.1,29.22,ENE,59,0.0,0.0,39,0.00,,---,0.00,VWS V14.01,2013-02-13 15:25:00,
2013-02-13 10:30:00,40.3,17.3,29.22,NE,55,0.0,0.0,39,0.00,,---,0.00,VWS V14.01,2013-02-13 15:30:00,
2013-02-13 10:35:00,41.0,17.4,29.22,ENE,76,0.0,0.0,38,0.00,,---,0.00,VWS V14.01,2013-02-13 15:35:00,
2013-02-13 10:40:00,41.9,18.2,29.22,ENE,76,0.0,0.0,38,0.00,,---,0.00,VWS V14.01,2013-02-13 15:40:00,
2013-02-13 10:45:00,42.4,18.6,29.22,SE,138,2.2,4.0,38,0.00,,---,0.00,VWS V14.01,2013-02-13 15:45:00,
2013-02-13 10:50:00,42.1,18.3,29.22,NNE,31,2.7,3.6,38,0.00,,---,0.00,VWS V14.01,2013-02-13 15:50:00,
2013-02-13 10:55:00,41.5,17.8,29.22,ENE,69,4.0,4.5,38,0.00,,---,0.00,VWS V14.01,2013-02-13 15:55:00,
2013-02-13 11:00:00,41.7,18.0,29.19,East,79,0.0,0.0,38,0.00,,---,0.00,VWS V14.01,2013-02-13 16:00:00,
2013-02-13 11:05:00,41.9,18.2,29.19,NNE,23,3.6,3.6,38,0.00,,---,0.00,VWS V14.01,2013-02-13 16:05:00,
2013-02-13 11:10:00,41.7,18.0,29.19,NE,36,0.0,0.0,38,0.00,,---,0.00,VWS V14.01,2013-02-13 16:10:00,
2013-02-13 11:15:00,41.4,17.7,29.19,SE,136,2.2,2.7,38,0.00,,---,0.00,VWS V14.01,2013-02-13 16:15:00,
2013-02-13 11:20:00,40.6,17.6,29.19,NE,38,3.6,3.6,39,0.00,,---,0.00,VWS V14.01,2013-02-13 16:20:00,
2013-02-13 11:25:00,40.5,17.5,29.19,WNW,294,0.0,0.0,39,0.00,,---,0.00,VWS V14.01,2013-02-13 16:25:00,
2013-02-13 11:30:00,40.1,17.1,29.22,WNW,294,0.0,0.0,39,0.00,,---,0.00,VWS V14.01,2013-02-13 16:30:00,
2013-02-13 11:35:00,39.9,17.0,29.22,WNW,294,0.0,0.0,39,0.00,,---,0.00,VWS V14.01,2013-02-13 16:35:00,
2013-02-13 11:40:00,39.7,16.8,29.22,South,182,0.0,0.0,39,0.00,,---,0.00,VWS V14.01,2013-02-13 16:40:00,
2013-02-13 11:45:00,39.4,16.5,29.22,West,265,0.0,0.0,39,0.00,,---,0.00,VWS V14.01,2013-02-13 16:45:00,
2013-02-13 11:50:00,39.2,16.3,29.22,East,95,0.0,0.0,39,0.00,,---,0.00,VWS V14.01,2013-02-13 16:50:00,
2013-02-13 11:55:00,39.0,16.2,29.22,SE,129,0.0,0.0,39,0.00,,---,0.00,VWS V14.01,2013-02-13 16:55:00,
2013-02-13 12:00:00,39.2,16.3,29.19,East,101,0.0,0.0,39,0.00,,---,0.00,VWS V14.01,2013-02-13 17:00:00,
2013-02-13 12:05:00,39.4,16.5,29.19,East,101,0.0,0.0,39,0.00,,---,0.00,VWS V14.01,2013-02-13 17:05:00,
2013-02-13 12:10:00,39.4,16.5,29.19,NNE,33,0.0,0.0,39,0.00,,---,0.00,VWS V14.01,2013-02-13 17:10:00,
2013-02-13 12:15:00,39.9,17.0,29.19,NNE,33,0.0,0.0,39,0.00,,---,0.00,VWS V14.01,2013-02-13 17:15:00,
2013-02-13 12:20:00,40.3,17.3,29.19,NNE,33,0.0,0.0,39,0.00,,---,0.00,VWS V14.01,2013-02-13 17:20:00,
2013-02-13 12:25:00,40.5,17.5,29.19,WNW,303,2.7,2.7,39,0.00,,---,0.00,VWS V14.01,2013-02-13 17:25:00,
2013-02-13 12:30:00,41.2,17.5,29.19,NE,48,0.0,0.0,38,0.00,,---,0.00,VWS V14.01,2013-02-13 17:30:00,
2013-02-13 12:35:00,42.1,18.3,29.19,NNE,27,0.0,0.0,38,0.00,,---,0.00,VWS V14.01,2013-02-13 17:35:00,
2013-02-13 12:40:00,42.6,18.8,29.19,SSE,165,0.0,0.0,38,0.00,,---,0.00,VWS V14.01,2013-02-13 17:40:00,
2013-02-13 12:45:00,43.5,19.6,29.19,SSW,195,0.0,0.0,38,0.00,,---,0.00,VWS V14.01,2013-02-13 17:45:00,
2013-02-13 12:50:00,43.2,19.3,29.19,East,96,0.0,0.0,38,0.00,,---,0.00,VWS V14.01,2013-02-13 17:50:00,
2013-02-13 12:55:00,43.3,19.5,29.19,NE,43,0.0,0.0,38,0.00,,---,0.00,VWS V14.01,2013-02-13 17:55:00,
2013-02-13 13:00:00,43.5,19.6,29.16,NE,40,0.0,0.0,38,0.00,,---,0.00,VWS V14.01,2013-02-13 18:00:00,
2013-02-13 13:05:00,43.3,19.5,29.16,SSE,153,0.0,0.0,38,0.00,,---,0.00,VWS V14.01,2013-02-13 18:05:00,
2013-02-13 13:10:00,42.6,18.8,29.16,SSE,164,0.0,0.0,38,0.00,,---,0.00,VWS V14.01,2013-02-13 18:10:00,
2013-02-13 13:15:00,41.9,18.2,29.16,ENE,68,0.0,0.0,38,0.00,,---,0.00,VWS V14.01,2013-02-13 18:15:00,
2013-02-13 13:20:00,40.6,17.6,29.16,ENE,64,4.0,4.0,39,0.00,,---,0.00,VWS V14.01,2013-02-13 18:20:00,
2013-02-13 13:25:00,39.9,17.0,29.16,NE,40,0.0,0.0,39,0.00,,---,0.00,VWS V14.01,2013-02-13 18:25:00,
2013-02-13 13:30:00,39.6,16.7,29.16,South,170,0.0,0.0,39,0.00,,---,0.00,VWS V14.01,2013-02-13 18:30:00,
2013-02-13 13:35:00,39.4,16.5,29.16,SSE,166,2.7,3.6,39,0.00,,---,0.00,VWS V14.01,2013-02-13 18:35:00,
2013-02-13 13:40:00,39.4,16.5,29.16,East,97,0.0,0.0,39,0.00,,---,0.00,VWS V14.01,2013-02-13 18:40:00,
2013-02-13 13:45:00,40.1,17.1,29.16,SE,133,0.0,0.0,39,0.00,,---,0.00,VWS V14.01,2013-02-13 18:45:00,
2013-02-13 13:49:00,40.8,17.8,29.16,SE,133,0.0,0.0,39,0.00,,---,0.00,VWS V14.01,2013-02-13 18:49:00,
2013-02-13 13:54:00,41.2,17.5,29.16,NE,46,0.0,3.1,38,0.00,,---,0.00,VWS V14.01,2013-02-13 18:54:00,
2013-02-13 13:59:00,41.5,17.8,29.16,SE,142,0.0,0.0,38,0.00,,---,0.00,VWS V14.01,2013-02-13 18:59:00,
2013-02-13 14:04:00,41.5,17.8,29.16,NE,50,0.0,0.0,38,0.00,,---,0.00,VWS V14.01,2013-02-13 19:04:00,
2013-02-13 14:09:00,40.8,17.8,29.16,ESE,113,0.0,0.0,39,0.00,,---,0.00,VWS V14.01,2013-02-13 19:09:00,
2013-02-13 14:14:00,40.1,17.1,29.13,NE,46,0.0,0.0,39,0.00,,---,0.00,VWS V14.01,2013-02-13 19:14:00,
2013-02-13 14:19:00,39.9,17.0,29.13,SSW,192,0.0,0.0,39,0.00,,---,0.00,VWS V14.01,2013-02-13 19:19:00,
2013-02-13 14:24:00,39.9,17.0,29.13,SW,217,0.0,0.0,39,0.00,,---,0.00,VWS V14.01,2013-02-13 19:24:00,
2013-02-13 14:29:00,39.6,16.7,29.13,NNE,25,0.0,0.0,39,0.00,,---,0.00,VWS V14.01,2013-02-13 19:29:00,
2013-02-13 14:34:00,39.6,16.7,29.13,WNW,301,2.7,2.7,39,0.00,,---,0.00,VWS V14.01,2013-02-13 19:34:00,
2013-02-13 14:39:00,39.6,16.7,29.13,NE,56,0.0,0.0,39,0.00,,---,0.00,VWS V14.01,2013-02-13 19:39:00,
2013-02-13 14:44:00,39.7,16.8,29.13,West,269,0.0,0.0,39,0.00,,---,0.00,VWS V14.01,2013-02-13 19:44:00,
2013-02-13 14:49:00,40.3,17.3,29.13,West,269,0.0,0.0,39,0.00,,---,0.00,VWS V14.01,2013-02-13 19:49:00,
2013-02-13 14:54:00,41.0,17.4,29.13,West,263,0.0,0.0,38,0.00,,---,0.00,VWS V14.01,2013-02-13 19:54:00,
2013-02-13 14:59:00,41.4,17.7,29.13,NE,46,0.0,0.0,38,0.00,,---,0.00,VWS V14.01,2013-02-13 19:59:00,
2013-02-13 15:04:00,40.3,17.3,29.13,NE,39,5.4,5.4,39,0.00,,---,0.00,VWS V14.01,2013-02-13 20:04:00,
2013-02-13 15:09:00,40.5,17.5,29.13,NE,39,0.0,0.0,39,0.00,,---,0.00,VWS V14.01,2013-02-13 20:09:00,
2013-02-13 15:14:00,39.7,16.8,29.13,NE,42,3.1,4.5,39,0.00,,---,0.00,VWS V14.01,2013-02-13 20:14:00,
2013-02-13 15:19:00,39.4,16.5,29.13,NE,42,0.0,0.0,39,0.00,,---,0.00,VWS V14.01,2013-02-13 20:19:00,
2013-02-13 15:24:00,39.2,16.3,29.13,NE,42,0.0,0.0,39,0.00,,---,0.00,VWS V14.01,2013-02-13 20:24:00,
2013-02-13 15:29:00,38.8,16.0,29.13,NE,42,0.0,0.0,39,0.00,,---,0.00,VWS V14.01,2013-02-13 20:29:00,
2013-02-13 15:34:00,38.3,15.5,29.13,NE,41,0.0,0.0,39,0.00,,---,0.00,VWS V14.01,2013-02-13 20:34:00,
2013-02-13 15:39:00,38.1,15.4,29.13,NE,41,0.0,0.0,39,0.00,,---,0.00,VWS V14.01,2013-02-13 20:39:00,
2013-02-13 15:44:00,37.8,15.0,29.13,NE,41,0.0,0.0,39,0.00,,---,0.00,VWS V14.01,2013-02-13 20:44:00,
2013-02-13 15:49:00,37.8,15.0,29.13,NE,41,0.0,0.0,39,0.00,,---,0.00,VWS V14.01,2013-02-13 20:49:00,
2013-02-13 15:54:00,37.6,14.9,29.13,NE,41,0.0,0.0,39,0.00,,---,0.00,VWS V14.01,2013-02-13 20:54:00,
2013-02-13 15:59:00,37.4,14.7,29.13,NE,40,0.0,0.0,39,0.00,,---,0.00,VWS V14.01,2013-02-13 20:59:00,
2013-02-13 16:04:00,37.2,15.1,29.13,NE,43,2.7,2.7,40,0.00,,---,0.00,VWS V14.01,2013-02-13 21:04:00,
2013-02-13 16:09:00,36.9,14.8,29.13,NE,47,0.0,3.1,40,0.00,,---,0.00,VWS V14.01,2013-02-13 21:09:00,
2013-02-13 16:14:00,36.3,14.3,29.13,NNE,27,0.0,3.6,40,0.00,,---,0.00,VWS V14.01,2013-02-13 21:14:00,
2013-02-13 16:19:00,35.8,13.8,29.13,NNW,332,2.2,3.1,40,0.00,,---,0.00,VWS V14.01,2013-02-13 21:19:00,
2013-02-13 16:24:00,35.4,13.5,29.13,ENE,59,3.1,3.6,40,0.00,,---,0.00,VWS V14.01,2013-02-13 21:24:00,
2013-02-13 16:29:00,35.1,13.2,29.13,SW,218,3.6,3.6,40,0.00,,---,0.00,VWS V14.01,2013-02-13 21:29:00,
2013-02-13 16:34:00,34.7,12.9,29.13,WNW,283,0.0,0.0,40,0.00,,---,0.00,VWS V14.01,2013-02-13 21:34:00,
2013-02-13 16:39:00,34.3,12.5,29.13,North,353,0.0,3.1,40,0.00,,---,0.00,VWS V14.01,2013-02-13 21:39:00,
2013-02-13 16:44:00,33.8,12.1,29.13,NE,34,0.0,3.1,40,0.00,,---,0.00,VWS V14.01,2013-02-13 21:44:00,
2013-02-13 16:49:00,33.6,11.9,29.13,NNE,25,0.0,3.6,40,0.00,,---,0.00,VWS V14.01,2013-02-13 21:49:00,
2013-02-13 16:54:00,33.3,12.1,29.13,NNE,19,0.0,0.0,41,0.00,,---,0.00,VWS V14.01,2013-02-13 21:54:00,
2013-02-13 16:59:00,33.1,12.0,29.13,WNW,301,0.0,0.0,41,0.00,,---,0.00,VWS V14.01,2013-02-13 21:59:00,
2013-02-13 17:04:00,32.9,11.8,29.13,North,353,0.0,0.0,41,0.00,,---,0.00,VWS V14.01,2013-02-13 22:04:00,
2013-02-13 17:09:00,32.7,11.6,29.13,NNE,28,0.0,0.0,41,0.00,,---,0.00,VWS V14.01,2013-02-13 22:09:00,
2013-02-13 17:14:00,32.5,11.5,29.16,NNE,30,0.0,0.0,41,0.00,,---,0.00,VWS V14.01,2013-02-13 22:14:00,
2013-02-13 17:19:00,32.5,11.5,29.16,North,349,0.0,0.0,41,0.00,,---,0.00,VWS V14.01,2013-02-13 22:19:00,
2013-02-13 17:24:00,32.4,11.9,29.16,NNE,28,3.6,3.6,42,0.00,,---,0.00,VWS V14.01,2013-02-13 22:24:00,
2013-02-13 17:29:00,32.4,11.9,29.16,NNE,15,0.0,0.0,42,0.00,,---,0.00,VWS V14.01,2013-02-13 22:29:00,
2013-02-13 17:34:00,32.2,11.7,29.16,North,4,0.0,0.0,42,0.00,,---,0.00,VWS V14.01,2013-02-13 22:34:00,
2013-02-13 17:39:00,32.2,11.7,29.16,North,357,0.0,0.0,42,0.00,,---,0.00,VWS V14.01,2013-02-13 22:39:00,
2013-02-13 17:44:00,32.0,11.5,29.16,North,357,0.0,0.0,42,0.00,,---,0.00,VWS V14.01,2013-02-13 22:44:00,
2013-02-13 17:49:00,32.0,11.5,29.16,North,357,0.0,0.0,42,0.00,,---,0.00,VWS V14.01,2013-02-13 22:49:00,
2013-02-13 17:54:00,32.0,11.0,29.16,North,357,0.0,0.0,41,0.00,,---,0.00,VWS V14.01,2013-02-13 22:54:00,
2013-02-13 17:59:00,31.8,10.8,29.16,North,357,0.0,0.0,41,0.00,,---,0.00,VWS V14.01,2013-02-13 22:59:00,
2013-02-13 18:04:00,31.8,10.8,29.16,North,357,0.0,0.0,41,0.00,,---,0.00,VWS V14.01,2013-02-13 23:04:00,
2013-02-13 18:09:00,31.8,10.8,29.16,North,357,0.0,0.0,41,0.00,,---,0.00,VWS V14.01,2013-02-13 23:09:00,
2013-02-13 18:14:00,31.8,10.8,29.16,North,357,0.0,0.0,41,0.00,,---,0.00,VWS V14.01,2013-02-13 23:14:00,
2013-02-13 18:19:00,31.6,10.6,29.16,North,357,0.0,0.0,41,0.00,,---,0.00,VWS V14.01,2013-02-13 23:19:00,
2013-02-13 18:24:00,31.6,10.6,29.16,North,357,0.0,0.0,41,0.00,,---,0.00,VWS V14.01,2013-02-13 23:24:00,
2013-02-13 18:29:00,31.6,10.6,29.16,North,357,0.0,0.0,41,0.00,,---,0.00,VWS V14.01,2013-02-13 23:29:00,
2013-02-13 18:34:00,31.5,10.5,29.16,North,357,0.0,0.0,41,0.00,,---,0.00,VWS V14.01,2013-02-13 23:34:00,
2013-02-13 18:39:00,31.5,10.5,29.16,North,357,0.0,0.0,41,0.00,,---,0.00,VWS V14.01,2013-02-13 23:39:00,
2013-02-13 18:44:00,31.5,10.5,29.19,North,357,0.0,0.0,41,0.00,,---,0.00,VWS V14.01,2013-02-13 23:44:00,
2013-02-13 18:49:00,31.3,10.3,29.19,North,357,0.0,0.0,41,0.00,,---,0.00,VWS V14.01,2013-02-13 23:49:00,
2013-02-13 18:54:00,31.3,10.3,29.19,North,357,0.0,0.0,41,0.00,,---,0.00,VWS V14.01,2013-02-13 23:54:00,
2013-02-13 18:59:00,31.3,10.3,29.19,North,357,0.0,0.0,41,0.00,,---,0.00,VWS V14.01,2013-02-13 23:59:00,
2013-02-13 19:04:00,31.1,10.2,29.19,North,357,0.0,0.0,41,0.00,,---,0.00,VWS V14.01,2013-02-14 00:04:00,
2013-02-13 19:09:00,31.1,10.2,29.19,North,357,0.0,0.0,41,0.00,,---,0.00,VWS V14.01,2013-02-14 00:09:00,
2013-02-13 19:14:00,31.1,10.2,29.19,North,357,0.0,0.0,41,0.00,,---,0.00,VWS V14.01,2013-02-14 00:14:00,
2013-02-13 19:19:00,31.1,10.2,29.19,WNW,299,0.0,0.0,41,0.00,,---,0.00,VWS V14.01,2013-02-14 00:19:00,
2013-02-13 19:24:00,30.9,10.0,29.19,West,271,0.0,0.0,41,0.00,,---,0.00,VWS V14.01,2013-02-14 00:24:00,
2013-02-13 19:29:00,30.7,9.8,29.19,West,271,0.0,0.0,41,0.00,,---,0.00,VWS V14.01,2013-02-14 00:29:00,
2013-02-13 19:34:00,30.7,9.8,29.19,NNW,327,0.0,0.0,41,0.00,,---,0.00,VWS V14.01,2013-02-14 00:34:00,
2013-02-13 19:39:00,30.7,9.8,29.19,NW,324,0.0,0.0,41,0.00,,---,0.00,VWS V14.01,2013-02-14 00:39:00,
2013-02-13 19:44:00,30.6,9.7,29.22,NW,324,0.0,0.0,41,0.00,,---,0.00,VWS V14.01,2013-02-14 00:44:00,
2013-02-13 19:49:00,30.7,9.8,29.22,NW,324,0.0,0.0,41,0.00,,---,0.00,VWS V14.01,2013-02-14 00:49:00,
2013-02-13 19:54:00,30.6,9.7,29.22,West,264,0.0,0.0,41,0.00,,---,0.00,VWS V14.01,2013-02-14 00:54:00,
2013-02-13 19:59:00,30.4,9.5,29.22,NNW,344,0.0,0.0,41,0.00,,---,0.00,VWS V14.01,2013-02-14 00:59:00,
2013-02-13 20:04:00,30.2,9.4,29.22,WNW,293,0.0,0.0,41,0.00,,---,0.00,VWS V14.01,2013-02-14 01:04:00,
2013-02-13 20:09:00,30.2,9.4,29.22,WNW,293,0.0,0.0,41,0.00,,---,0.00,VWS V14.01,2013-02-14 01:09:00,
2013-02-13 20:14:00,30.2,9.4,29.22,WNW,293,0.0,0.0,41,0.00,,---,0.00,VWS V14.01,2013-02-14 01:14:00,
2013-02-13 20:19:00,30.0,9.2,29.22,SW,218,0.0,0.0,41,0.00,,---,0.00,VWS V14.01,2013-02-14 01:19:00,
2013-02-13 20:24:00,29.8,9.0,29.22,WSW,237,2.7,2.7,41,0.00,,---,0.00,VWS V14.01,2013-02-14 01:24:00,
2013-02-13 20:29:00,29.7,8.9,29.22,NNW,328,0.0,0.0,41,0.00,,---,0.00,VWS V14.01,2013-02-14 01:29:00,
2013-02-13 20:34:00,29.5,8.7,29.22,North,10,0.0,0.0,41,0.00,,---,0.00,VWS V14.01,2013-02-14 01:34:00,
2013-02-13 20:39:00,29.5,8.7,29.22,West,259,2.7,2.7,41,0.00,,---,0.00,VWS V14.01,2013-02-14 01:39:00,
2013-02-13 20:44:00,29.5,8.7,29.22,NNE,12,0.0,0.0,41,0.00,,---,0.00,VWS V14.01,2013-02-14 01:44:00,
2013-02-13 20:49:00,29.5,8.7,29.22,SSE,168,0.0,3.1,41,0.00,,---,0.00,VWS V14.01,2013-02-14 01:49:00,
2013-02-13 20:54:00,29.5,8.7,29.22,NNW,342,0.0,0.0,41,0.00,,---,0.00,VWS V14.01,2013-02-14 01:54:00,
2013-02-13 20:59:00,29.5,8.7,29.22,West,272,0.0,0.0,41,0.00,,---,0.00,VWS V14.01,2013-02-14 01:59:00,
2013-02-13 21:04:00,29.5,8.7,29.22,NNW,334,0.0,0.0,41,0.00,,---,0.00,VWS V14.01,2013-02-14 02:04:00,
2013-02-13 21:09:00,29.3,8.5,29.22,ENE,61,0.0,0.0,41,0.00,,---,0.00,VWS V14.01,2013-02-14 02:09:00,
2013-02-13 21:14:00,29.3,8.5,29.25,NW,306,0.0,0.0,41,0.00,,---,0.00,VWS V14.01,2013-02-14 02:14:00,
2013-02-13 21:19:00,29.1,8.4,29.25,WNW,296,0.0,4.9,41,0.00,,---,0.00,VWS V14.01,2013-02-14 02:19:00,
2013-02-13 21:24:00,29.3,8.5,29.25,WSW,247,0.0,0.0,41,0.00,,---,0.00,VWS V14.01,2013-02-14 02:24:00,
2013-02-13 21:29:00,29.1,8.4,29.25,ENE,62,0.0,2.2,41,0.00,,---,0.00,VWS V14.01,2013-02-14 02:29:00,
2013-02-13 21:34:00,29.1,8.4,29.25,NW,324,0.0,0.0,41,0.00,,---,0.00,VWS V14.01,2013-02-14 02:34:00,
2013-02-13 21:39:00,29.1,8.4,29.25,North,357,4.5,4.5,41,0.00,,---,0.00,VWS V14.01,2013-02-14 02:39:00,
2013-02-13 21:44:00,29.1,8.4,29.25,NE,40,0.0,3.6,41,0.00,,---,0.00,VWS V14.01,2013-02-14 02:44:00,
2013-02-13 21:49:00,29.1,8.4,29.25,West,266,0.0,0.0,41,0.00,,---,0.00,VWS V14.01,2013-02-14 02:49:00,
2013-02-13 21:54:00,29.1,8.4,29.25,WNW,285,0.0,0.0,41,0.00,,---,0.00,VWS V14.01,2013-02-14 02:54:00,
2013-02-13 21:59:00,28.9,8.2,29.25,WNW,298,0.0,0.0,41,0.00,,---,0.00,VWS V14.01,2013-02-14 02:59:00,
2013-02-13 22:04:00,28.9,8.2,29.25,NNE,33,0.0,0.0,41,0.00,,---,0.00,VWS V14.01,2013-02-14 03:04:00,
2013-02-13 22:09:00,28.9,8.2,29.25,North,0,0.0,0.0,41,0.00,,---,0.00,VWS V14.01,2013-02-14 03:09:00,
2013-02-13 22:14:00,28.8,8.0,29.25,WNW,289,0.0,4.0,41,0.00,,---,0.00,VWS V14.01,2013-02-14 03:14:00,
2013-02-13 22:19:00,28.8,8.0,29.25,NW,307,0.0,0.0,41,0.00,,---,0.00,VWS V14.01,2013-02-14 03:19:00,
2013-02-13 22:24:00,28.6,7.9,29.25,WSW,256,0.0,0.0,41,0.00,,---,0.00,VWS V14.01,2013-02-14 03:24:00,
2013-02-13 22:29:00,28.8,8.0,29.25,NW,308,0.0,3.1,41,0.00,,---,0.00,VWS V14.01,2013-02-14 03:29:00,
2013-02-13 22:34:00,28.8,8.0,29.25,WSW,257,0.0,0.0,41,0.00,,---,0.00,VWS V14.01,2013-02-14 03:34:00,
2013-02-13 22:39:00,28.6,7.9,29.25,NNE,14,0.0,3.6,41,0.00,,---,0.00,VWS V14.01,2013-02-14 03:39:00,
2013-02-13 22:44:00,28.6,7.9,29.28,West,268,2.7,5.4,41,0.00,,---,0.00,VWS V14.01,2013-02-14 03:44:00,
2013-02-13 22:49:00,28.6,7.9,29.28,West,266,0.0,3.6,41,0.00,,---,0.00,VWS V14.01,2013-02-14 03:49:00,
2013-02-13 22:54:00,28.4,8.2,29.28,South,172,0.0,4.9,42,0.00,,---,0.00,VWS V14.01,2013-02-14 03:54:00,
2013-02-13 22:59:00,28.4,8.2,29.28,SSW,199,0.0,0.0,42,0.00,,---,0.00,VWS V14.01,2013-02-14 03:59:00,
2013-02-13 23:04:00,28.2,8.1,29.28,NE,37,0.0,2.7,42,0.00,,---,0.00,VWS V14.01,2013-02-14 04:04:00,
2013-02-13 23:09:00,28.0,7.9,29.28,NW,326,0.0,0.0,42,0.00,,---,0.00,VWS V14.01,2013-02-14 04:09:00,
2013-02-13 23:14:00,28.0,7.9,29.28,West,280,0.0,0.0,42,0.00,,---,0.00,VWS V14.01,2013-02-14 04:14:00,
2013-02-13 23:19:00,28.0,7.9,29.28,WSW,238,0.0,0.0,42,0.00,,---,0.00,VWS V14.01,2013-02-14 04:19:00,
2013-02-13 23:24:00,27.9,7.8,29.28,NE,46,0.0,0.0,42,0.00,,---,0.00,VWS V14.01,2013-02-14 04:24:00,
2013-02-13 23:29:00,27.9,7.8,29.28,WSW,257,0.0,2.7,42,0.00,,---,0.00,VWS V14.01,2013-02-14 04:29:00,
2013-02-13 23:34:00,27.9,7.8,29.28,NE,46,0.0,0.0,42,0.00,,---,0.00,VWS V14.01,2013-02-14 04:34:00,
2013-02-13 23:39:00,27.9,7.8,29.28,WSW,248,0.0,2.7,42,0.00,,---,0.00,VWS V14.01,2013-02-14 04:39:00,
2013-02-13 23:44:00,27.9,7.8,29.28,ESE,123,0.0,6.3,42,0.00,,---,0.00,VWS V14.01,2013-02-14 04:44:00,
2013-02-13 23:49:00,27.9,7.8,29.28,WNW,290,4.0,4.0,42,0.00,,---,0.00,VWS V14.01,2013-02-14 04:49:00,
2013-02-13 23:54:00,27.9,7.8,29.28,West,278,0.0,4.0,42,0.00,,---,0.00,VWS V14.01,2013-02-14 04:54:00,
2013-02-13 23:59:00,27.9,7.8,29.28,WSW,255,0.0,0.0,42,0.00,,---,0.00,VWS V14.01,2013-02-14 04:59:00,